sensor_id;sensor_type;location;lat;lon;timestamp;pressure;altitude;pressure_sealevel;temperature;humidity
79250;BME280;68679;51.030;7.584;2023-11-19T00:00:47;98516.34;;;7.45;83.48
79250;BME280;68679;51.030;7.584;2023-11-19T00:03:12;98496.53;;;7.44;83.68
79250;BME280;68679;51.030;7.584;2023-11-19T00:05:38;98490.25;;;7.45;83.71
79250;BME280;68679;51.030;7.584;2023-11-19T00:08:04;98501.47;;;7.46;83.52
79250;BME280;68679;51.030;7.584;2023-11-19T00:10:31;98508.28;;;7.47;83.57
79250;BME280;68679;51.030;7.584;2023-11-19T00:12:56;98499.41;;;7.48;83.33
79250;BME280;68679;51.030;7.584;2023-11-19T00:15:22;98478.53;;;7.48;83.54
79250;BME280;68679;51.030;7.584;2023-11-19T00:17:49;98470.44;;;7.49;83.73
79250;BME280;68679;51.030;7.584;2023-11-19T00:20:16;98471.22;;;7.50;83.34
79250;BME280;68679;51.030;7.584;2023-11-19T00:22:42;98484.75;;;7.52;83.98
79250;BME280;68679;51.030;7.584;2023-11-19T00:25:08;98475.66;;;7.55;83.39
79250;BME280;68679;51.030;7.584;2023-11-19T00:27:34;98467.81;;;7.55;83.26
79250;BME280;68679;51.030;7.584;2023-11-19T00:29:59;98443.28;;;7.56;85.18
79250;BME280;68679;51.030;7.584;2023-11-19T00:32:24;98449.56;;;7.55;82.64
79250;BME280;68679;51.030;7.584;2023-11-19T00:34:50;98442.78;;;7.59;83.91
79250;BME280;68679;51.030;7.584;2023-11-19T00:37:16;98434.41;;;7.57;83.71
79250;BME280;68679;51.030;7.584;2023-11-19T00:39:42;98450.59;;;7.59;83.95
79250;BME280;68679;51.030;7.584;2023-11-19T00:42:08;98454.00;;;7.59;84.17
79250;BME280;68679;51.030;7.584;2023-11-19T00:44:35;98452.94;;;7.60;83.70
79250;BME280;68679;51.030;7.584;2023-11-19T00:47:00;98439.91;;;7.60;84.28
79250;BME280;68679;51.030;7.584;2023-11-19T00:49:25;98431.03;;;7.61;83.85
79250;BME280;68679;51.030;7.584;2023-11-19T00:51:51;98430.75;;;7.63;84.15
79250;BME280;68679;51.030;7.584;2023-11-19T00:54:16;98427.09;;;7.64;83.65
79250;BME280;68679;51.030;7.584;2023-11-19T00:56:41;98426.06;;;7.65;84.03
79250;BME280;68679;51.030;7.584;2023-11-19T00:59:07;98439.63;;;7.67;84.01
79250;BME280;68679;51.030;7.584;2023-11-19T01:01:32;98433.34;;;7.68;84.58
79250;BME280;68679;51.030;7.584;2023-11-19T01:03:58;98423.94;;;7.67;84.25
79250;BME280;68679;51.030;7.584;2023-11-19T01:06:27;98428.63;;;7.70;84.01
79250;BME280;68679;51.030;7.584;2023-11-19T01:08:53;98425.00;;;7.71;83.96
79250;BME280;68679;51.030;7.584;2023-11-19T01:11:21;98411.94;;;7.71;84.46
79250;BME280;68679;51.030;7.584;2023-11-19T01:13:47;98408.28;;;7.72;84.08
79250;BME280;68679;51.030;7.584;2023-11-19T01:16:12;98408.28;;;7.72;84.20
79250;BME280;68679;51.030;7.584;2023-11-19T01:18:38;98405.91;;;7.75;84.10
79250;BME280;68679;51.030;7.584;2023-11-19T01:21:03;98401.47;;;7.76;83.60
79250;BME280;68679;51.030;7.584;2023-11-19T01:23:29;98393.63;;;7.76;84.20
79250;BME280;68679;51.030;7.584;2023-11-19T01:25:54;98403.81;;;7.77;84.03
79250;BME280;68679;51.030;7.584;2023-11-19T01:28:19;98398.34;;;7.79;83.80
79250;BME280;68679;51.030;7.584;2023-11-19T01:30:45;98396.50;;;7.79;83.64
79250;BME280;68679;51.030;7.584;2023-11-19T01:33:10;98388.69;;;7.79;84.21
79250;BME280;68679;51.030;7.584;2023-11-19T01:35:35;98391.00;;;7.81;84.19
79250;BME280;68679;51.030;7.584;2023-11-19T01:38:00;98390.22;;;7.80;84.34
79250;BME280;68679;51.030;7.584;2023-11-19T01:40:26;98392.56;;;7.82;83.97
79250;BME280;68679;51.030;7.584;2023-11-19T01:42:51;98387.09;;;7.84;84.00
79250;BME280;68679;51.030;7.584;2023-11-19T01:45:22;98398.03;;;7.86;83.93
79250;BME280;68679;51.030;7.584;2023-11-19T01:47:52;98388.66;;;7.85;84.27
79250;BME280;68679;51.030;7.584;2023-11-19T01:50:17;98381.59;;;7.85;84.99
79250;BME280;68679;51.030;7.584;2023-11-19T01:52:42;98383.16;;;7.86;84.22
79250;BME280;68679;51.030;7.584;2023-11-19T01:55:09;98386.28;;;7.88;84.65
79250;BME280;68679;51.030;7.584;2023-11-19T01:57:35;98395.41;;;7.91;83.41
79250;BME280;68679;51.030;7.584;2023-11-19T02:00:03;98371.41;;;7.89;82.02
79250;BME280;68679;51.030;7.584;2023-11-19T02:02:28;98376.59;;;7.94;83.57
79250;BME280;68679;51.030;7.584;2023-11-19T02:04:54;98373.19;;;7.93;83.77
79250;BME280;68679;51.030;7.584;2023-11-19T02:07:21;98370.34;;;7.95;84.86
79250;BME280;68679;51.030;7.584;2023-11-19T02:09:46;98370.34;;;7.95;84.90
79250;BME280;68679;51.030;7.584;2023-11-19T02:12:12;98375.28;;;7.96;84.01
79250;BME280;68679;51.030;7.584;2023-11-19T02:14:37;98372.41;;;7.98;84.02
79250;BME280;68679;51.030;7.584;2023-11-19T02:17:03;98375.78;;;7.98;83.19
79250;BME280;68679;51.030;7.584;2023-11-19T02:19:28;98366.91;;;7.99;83.65
79250;BME280;68679;51.030;7.584;2023-11-19T02:21:54;98374.47;;;8.01;84.01
79250;BME280;68679;51.030;7.584;2023-11-19T02:24:22;98377.88;;;8.01;83.95
79250;BME280;68679;51.030;7.584;2023-11-19T02:27:07;98382.81;;;8.03;83.34
79250;BME280;68679;51.030;7.584;2023-11-19T02:29:33;98381.47;;;8.05;83.88
79250;BME280;68679;51.030;7.584;2023-11-19T02:32:00;98385.66;;;8.06;83.86
79250;BME280;68679;51.030;7.584;2023-11-19T02:34:25;98384.63;;;8.07;83.49
79250;BME280;68679;51.030;7.584;2023-11-19T02:36:50;98372.34;;;8.08;82.70
79250;BME280;68679;51.030;7.584;2023-11-19T02:39:16;98368.41;;;8.11;84.60
79250;BME280;68679;51.030;7.584;2023-11-19T02:41:46;98366.28;;;8.13;83.37
79250;BME280;68679;51.030;7.584;2023-11-19T02:44:12;98364.50;;;8.13;83.65
79250;BME280;68679;51.030;7.584;2023-11-19T02:46:38;98364.22;;;8.15;83.53
79250;BME280;68679;51.030;7.584;2023-11-19T02:49:07;98344.88;;;8.16;84.15
79250;BME280;68679;51.030;7.584;2023-11-19T02:51:32;98345.13;;;8.19;83.10
79250;BME280;68679;51.030;7.584;2023-11-19T02:53:57;98347.47;;;8.21;83.63
79250;BME280;68679;51.030;7.584;2023-11-19T02:56:23;98341.97;;;8.22;84.07
79250;BME280;68679;51.030;7.584;2023-11-19T02:58:52;98331.22;;;8.24;83.40
79250;BME280;68679;51.030;7.584;2023-11-19T03:01:24;98327.31;;;8.26;83.99
79250;BME280;68679;51.030;7.584;2023-11-19T03:03:55;98336.69;;;8.27;83.86
79250;BME280;68679;51.030;7.584;2023-11-19T03:06:21;98336.69;;;8.27;83.52
79250;BME280;68679;51.030;7.584;2023-11-19T03:08:47;98340.59;;;8.30;83.18
79250;BME280;68679;51.030;7.584;2023-11-19T03:11:13;98335.88;;;8.32;83.49
79250;BME280;68679;51.030;7.584;2023-11-19T03:13:39;98335.59;;;8.33;83.71
79250;BME280;68679;51.030;7.584;2023-11-19T03:16:04;98332.72;;;8.35;83.62
79250;BME280;68679;51.030;7.584;2023-11-19T03:18:29;98334.31;;;8.36;83.52
79250;BME280;68679;51.030;7.584;2023-11-19T03:20:55;98335.84;;;8.37;83.50
79250;BME280;68679;51.030;7.584;2023-11-19T03:23:20;98344.22;;;8.39;83.52
79250;BME280;68679;51.030;7.584;2023-11-19T03:25:45;98331.94;;;8.40;83.28
79250;BME280;68679;51.030;7.584;2023-11-19T03:28:11;98333.50;;;8.41;83.27
79250;BME280;68679;51.030;7.584;2023-11-19T03:30:36;98320.91;;;8.43;83.72
79250;BME280;68679;51.030;7.584;2023-11-19T03:33:01;98325.13;;;8.44;83.94
79250;BME280;68679;51.030;7.584;2023-11-19T03:35:27;98318.84;;;8.45;83.74
79250;BME280;68679;51.030;7.584;2023-11-19T03:37:53;98329.78;;;8.47;83.69
79250;BME280;68679;51.030;7.584;2023-11-19T03:40:18;98327.94;;;8.47;83.60
79250;BME280;68679;51.030;7.584;2023-11-19T03:42:45;98318.03;;;8.49;83.67
79250;BME280;68679;51.030;7.584;2023-11-19T03:45:10;98315.91;;;8.51;83.69
79250;BME280;68679;51.030;7.584;2023-11-19T03:47:36;98307.00;;;8.52;84.04
79250;BME280;68679;51.030;7.584;2023-11-19T03:50:01;98315.34;;;8.54;84.04
79250;BME280;68679;51.030;7.584;2023-11-19T03:52:27;98326.31;;;8.56;84.37
79250;BME280;68679;51.030;7.584;2023-11-19T03:54:53;98315.59;;;8.58;83.95
79250;BME280;68679;51.030;7.584;2023-11-19T03:57:20;98316.34;;;8.58;84.06
79250;BME280;68679;51.030;7.584;2023-11-19T03:59:45;98322.09;;;8.60;83.91
79250;BME280;68679;51.030;7.584;2023-11-19T04:02:10;98326.78;;;8.64;84.07
79250;BME280;68679;51.030;7.584;2023-11-19T04:04:36;98328.59;;;8.63;84.34
79250;BME280;68679;51.030;7.584;2023-11-19T04:07:02;98330.94;;;8.65;83.67
79250;BME280;68679;51.030;7.584;2023-11-19T04:09:28;98319.44;;;8.66;83.99
79250;BME280;68679;51.030;7.584;2023-11-19T04:11:54;98322.56;;;8.68;83.92
79250;BME280;68679;51.030;7.584;2023-11-19T04:14:19;98316.28;;;8.69;83.71
79250;BME280;68679;51.030;7.584;2023-11-19T04:16:45;98323.06;;;8.70;83.70
79250;BME280;68679;51.030;7.584;2023-11-19T04:19:10;98334.00;;;8.72;83.86
79250;BME280;68679;51.030;7.584;2023-11-19T04:21:36;98332.16;;;8.72;83.90
79250;BME280;68679;51.030;7.584;2023-11-19T04:24:01;98323.28;;;8.73;83.87
79250;BME280;68679;51.030;7.584;2023-11-19T04:26:26;98321.97;;;8.76;83.59
79250;BME280;68679;51.030;7.584;2023-11-19T04:28:52;98315.19;;;8.75;83.92
79250;BME280;68679;51.030;7.584;2023-11-19T04:31:17;98319.06;;;8.77;83.56
79250;BME280;68679;51.030;7.584;2023-11-19T04:33:43;98319.84;;;8.78;83.50
79250;BME280;68679;51.030;7.584;2023-11-19T04:36:12;98330.81;;;8.80;83.55
79250;BME280;68679;51.030;7.584;2023-11-19T04:38:39;98336.53;;;8.82;84.21
79250;BME280;68679;51.030;7.584;2023-11-19T04:41:05;98335.47;;;8.83;83.91
79250;BME280;68679;51.030;7.584;2023-11-19T04:43:34;98330.53;;;8.81;83.95
79250;BME280;68679;51.030;7.584;2023-11-19T04:45:59;98330.75;;;8.85;83.52
79250;BME280;68679;51.030;7.584;2023-11-19T04:48:24;98340.94;;;8.86;84.03
79250;BME280;68679;51.030;7.584;2023-11-19T04:50:50;98329.13;;;8.89;84.38
79250;BME280;68679;51.030;7.584;2023-11-19T04:53:17;98329.13;;;8.89;84.29
79250;BME280;68679;51.030;7.584;2023-11-19T04:55:42;98328.84;;;8.91;83.91
79250;BME280;68679;51.030;7.584;2023-11-19T04:58:08;98333.84;;;8.92;83.80
79250;BME280;68679;51.030;7.584;2023-11-19T05:00:33;98336.94;;;8.94;83.91
79250;BME280;68679;51.030;7.584;2023-11-19T05:02:58;98332.44;;;9.00;84.70
79250;BME280;68679;51.030;7.584;2023-11-19T05:05:23;98339.22;;;9.01;83.52
79250;BME280;68679;51.030;7.584;2023-11-19T05:07:49;98328.47;;;9.02;84.07
79250;BME280;68679;51.030;7.584;2023-11-19T05:10:14;98332.66;;;9.03;84.17
79250;BME280;68679;51.030;7.584;2023-11-19T05:12:39;98330.81;;;9.04;84.18
79250;BME280;68679;51.030;7.584;2023-11-19T05:15:06;98321.94;;;9.05;83.86
79250;BME280;68679;51.030;7.584;2023-11-19T05:17:32;98333.16;;;9.05;83.53
79250;BME280;68679;51.030;7.584;2023-11-19T05:19:57;98342.00;;;9.09;84.12
79250;BME280;68679;51.030;7.584;2023-11-19T05:22:22;98350.38;;;9.11;84.46
79250;BME280;68679;51.030;7.584;2023-11-19T05:24:48;98335.44;;;9.12;84.15
79250;BME280;68679;51.030;7.584;2023-11-19T05:27:14;98324.69;;;9.13;84.20
79250;BME280;68679;51.030;7.584;2023-11-19T05:29:39;98337.50;;;9.15;83.67
79250;BME280;68679;51.030;7.584;2023-11-19T05:32:06;98339.84;;;9.17;84.34
79250;BME280;68679;51.030;7.584;2023-11-19T05:34:32;98353.41;;;9.19;83.74
79250;BME280;68679;51.030;7.584;2023-11-19T05:36:57;98350.53;;;9.20;84.21
79250;BME280;68679;51.030;7.584;2023-11-19T05:39:23;98344.22;;;9.21;84.36
79250;BME280;68679;51.030;7.584;2023-11-19T05:41:49;98352.06;;;9.21;83.52
79250;BME280;68679;51.030;7.584;2023-11-19T05:44:14;98347.84;;;9.25;84.09
79250;BME280;68679;51.030;7.584;2023-11-19T05:46:39;98356.47;;;9.26;83.64
79250;BME280;68679;51.030;7.584;2023-11-19T05:49:08;98356.97;;;9.28;84.19
79250;BME280;68679;51.030;7.584;2023-11-19T05:51:37;98367.66;;;9.31;83.37
79250;BME280;68679;51.030;7.584;2023-11-19T05:54:02;98356.91;;;9.33;84.05
79250;BME280;68679;51.030;7.584;2023-11-19T05:56:27;98363.50;;;9.30;84.29
79250;BME280;68679;51.030;7.584;2023-11-19T05:58:57;98350.13;;;9.32;84.47
79250;BME280;68679;51.030;7.584;2023-11-19T06:01:23;98344.63;;;9.33;84.82
79250;BME280;68679;51.030;7.584;2023-11-19T06:03:48;98362.16;;;9.33;83.73
79250;BME280;68679;51.030;7.584;2023-11-19T06:06:15;98369.94;;;9.38;85.54
79250;BME280;68679;51.030;7.584;2023-11-19T06:08:40;98371.50;;;9.39;85.12
79250;BME280;68679;51.030;7.584;2023-11-19T06:11:05;98373.34;;;9.38;84.13
79250;BME280;68679;51.030;7.584;2023-11-19T06:13:31;98363.94;;;9.37;84.69
79250;BME280;68679;51.030;7.584;2023-11-19T06:15:56;98368.63;;;9.40;85.21
79250;BME280;68679;51.030;7.584;2023-11-19T06:18:21;98383.53;;;9.40;84.10
79250;BME280;68679;51.030;7.584;2023-11-19T06:20:48;98377.25;;;9.41;84.34
79250;BME280;68679;51.030;7.584;2023-11-19T06:23:14;98380.91;;;9.40;83.50
79250;BME280;68679;51.030;7.584;2023-11-19T06:25:40;98378.28;;;9.40;83.75
79250;BME280;68679;51.030;7.584;2023-11-19T06:28:05;98380.66;;;9.42;84.54
79250;BME280;68679;51.030;7.584;2023-11-19T06:30:30;98372.78;;;9.42;84.52
79250;BME280;68679;51.030;7.584;2023-11-19T06:32:57;98389.00;;;9.44;84.98
79250;BME280;68679;51.030;7.584;2023-11-19T06:35:23;98390.81;;;9.43;84.55
79250;BME280;68679;51.030;7.584;2023-11-19T06:37:48;98385.59;;;9.43;84.57
79250;BME280;68679;51.030;7.584;2023-11-19T06:40:13;98381.91;;;9.44;84.66
79250;BME280;68679;51.030;7.584;2023-11-19T06:42:40;98383.75;;;9.44;84.66
79250;BME280;68679;51.030;7.584;2023-11-19T06:45:06;98382.69;;;9.45;84.95
79250;BME280;68679;51.030;7.584;2023-11-19T06:47:32;98388.44;;;9.47;85.35
79250;BME280;68679;51.030;7.584;2023-11-19T06:49:58;98392.88;;;9.46;84.11
79250;BME280;68679;51.030;7.584;2023-11-19T06:52:23;98400.72;;;9.46;84.19
79250;BME280;68679;51.030;7.584;2023-11-19T06:54:49;98406.75;;;9.47;84.79
79250;BME280;68679;51.030;7.584;2023-11-19T06:57:14;98404.41;;;9.45;84.11
79250;BME280;68679;51.030;7.584;2023-11-19T06:59:40;98402.31;;;9.47;84.96
79250;BME280;68679;51.030;7.584;2023-11-19T07:02:06;98395.78;;;9.45;83.79
79250;BME280;68679;51.030;7.584;2023-11-19T07:04:31;98416.72;;;9.45;84.57
79250;BME280;68679;51.030;7.584;2023-11-19T07:06:58;98414.88;;;9.45;84.53
79250;BME280;68679;51.030;7.584;2023-11-19T07:09:25;98415.38;;;9.47;84.82
79250;BME280;68679;51.030;7.584;2023-11-19T07:11:50;98407.25;;;9.49;84.84
79250;BME280;68679;51.030;7.584;2023-11-19T07:14:19;98408.31;;;9.48;84.85
79250;BME280;68679;51.030;7.584;2023-11-19T07:16:44;98412.00;;;9.47;84.21
79250;BME280;68679;51.030;7.584;2023-11-19T07:19:11;98419.03;;;9.46;84.65
79250;BME280;68679;51.030;7.584;2023-11-19T07:21:36;98410.16;;;9.47;84.50
79250;BME280;68679;51.030;7.584;2023-11-19T07:24:09;98416.94;;;9.48;84.92
79250;BME280;68679;51.030;7.584;2023-11-19T07:26:34;98401.53;;;9.47;84.57
79250;BME280;68679;51.030;7.584;2023-11-19T07:28:59;98397.06;;;9.47;84.65
79250;BME280;68679;51.030;7.584;2023-11-19T07:31:26;98384.47;;;9.49;85.34
79250;BME280;68679;51.030;7.584;2023-11-19T07:33:52;98400.47;;;9.48;84.29
79250;BME280;68679;51.030;7.584;2023-11-19T07:36:19;98400.47;;;9.48;84.48
79250;BME280;68679;51.030;7.584;2023-11-19T07:38:45;98410.16;;;9.47;84.93
79250;BME280;68679;51.030;7.584;2023-11-19T07:41:11;98402.31;;;9.47;84.53
79250;BME280;68679;51.030;7.584;2023-11-19T07:43:39;98397.31;;;9.46;84.23
79250;BME280;68679;51.030;7.584;2023-11-19T07:46:10;98400.72;;;9.46;84.60
79250;BME280;68679;51.030;7.584;2023-11-19T07:48:36;98406.25;;;9.45;84.74
79250;BME280;68679;51.030;7.584;2023-11-19T07:51:01;98412.53;;;9.44;84.21
79250;BME280;68679;51.030;7.584;2023-11-19T07:53:27;98421.16;;;9.44;84.07
79250;BME280;68679;51.030;7.584;2023-11-19T07:55:53;98410.97;;;9.43;84.36
79250;BME280;68679;51.030;7.584;2023-11-19T07:58:18;98409.69;;;9.40;84.17
79250;BME280;68679;51.030;7.584;2023-11-19T08:00:43;98412.03;;;9.42;83.21
79250;BME280;68679;51.030;7.584;2023-11-19T08:03:09;98410.97;;;9.43;84.83
79250;BME280;68679;51.030;7.584;2023-11-19T08:05:34;98428.53;;;9.42;84.06
79250;BME280;68679;51.030;7.584;2023-11-19T08:07:59;98433.47;;;9.44;84.38
79250;BME280;68679;51.030;7.584;2023-11-19T08:10:25;98430.06;;;9.43;84.41
79250;BME280;68679;51.030;7.584;2023-11-19T08:12:50;98439.47;;;9.44;84.98
79250;BME280;68679;51.030;7.584;2023-11-19T08:15:16;98436.88;;;9.44;84.60
79250;BME280;68679;51.030;7.584;2023-11-19T08:17:41;98433.47;;;9.44;84.17
79250;BME280;68679;51.030;7.584;2023-11-19T08:20:08;98431.63;;;9.44;84.28
79250;BME280;68679;51.030;7.584;2023-11-19T08:22:37;98444.16;;;9.47;84.25
79250;BME280;68679;51.030;7.584;2023-11-19T08:25:04;98433.72;;;9.47;84.86
79250;BME280;68679;51.030;7.584;2023-11-19T08:27:30;98438.94;;;9.47;83.74
79250;BME280;68679;51.030;7.584;2023-11-19T08:29:55;98448.34;;;9.48;84.62
79250;BME280;68679;51.030;7.584;2023-11-19T08:32:25;98448.06;;;9.50;84.01
79250;BME280;68679;51.030;7.584;2023-11-19T08:34:50;98446.72;;;9.52;85.04
79250;BME280;68679;51.030;7.584;2023-11-19T08:37:15;98452.75;;;9.53;84.32
79250;BME280;68679;51.030;7.584;2023-11-19T08:39:43;98450.91;;;9.53;84.13
79250;BME280;68679;51.030;7.584;2023-11-19T08:42:08;98454.81;;;9.56;84.39
79250;BME280;68679;51.030;7.584;2023-11-19T08:44:34;98448.50;;;9.57;85.25
79250;BME280;68679;51.030;7.584;2023-11-19T08:46:59;98450.34;;;9.56;84.02
79250;BME280;68679;51.030;7.584;2023-11-19T08:49:24;98450.06;;;9.58;83.91
79250;BME280;68679;51.030;7.584;2023-11-19T08:51:51;98448.75;;;9.60;84.65
79250;BME280;68679;51.030;7.584;2023-11-19T08:54:16;98449.50;;;9.61;83.80
79250;BME280;68679;51.030;7.584;2023-11-19T08:56:42;98447.91;;;9.65;84.50
79250;BME280;68679;51.030;7.584;2023-11-19T08:59:07;98462.25;;;9.67;84.80
79250;BME280;68679;51.030;7.584;2023-11-19T09:01:33;98455.19;;;9.68;84.26
79250;BME280;68679;51.030;7.584;2023-11-19T09:03:59;98460.44;;;9.68;84.59
79250;BME280;68679;51.030;7.584;2023-11-19T09:06:24;98461.97;;;9.69;83.97
79250;BME280;68679;51.030;7.584;2023-11-19T09:08:49;98455.69;;;9.70;84.10
79250;BME280;68679;51.030;7.584;2023-11-19T09:11:16;98461.16;;;9.74;84.81
79250;BME280;68679;51.030;7.584;2023-11-19T09:13:45;98454.84;;;9.75;84.65
79250;BME280;68679;51.030;7.584;2023-11-19T09:16:11;98455.91;;;9.74;83.20
79250;BME280;68679;51.030;7.584;2023-11-19T09:18:37;98454.56;;;9.76;83.59
79250;BME280;68679;51.030;7.584;2023-11-19T09:21:02;98456.94;;;9.78;84.13
79250;BME280;68679;51.030;7.584;2023-11-19T09:23:28;98456.66;;;9.79;84.34
79250;BME280;68679;51.030;7.584;2023-11-19T09:25:55;98463.94;;;9.82;84.57
79250;BME280;68679;51.030;7.584;2023-11-19T09:28:21;98474.91;;;9.84;84.39
79250;BME280;68679;51.030;7.584;2023-11-19T09:30:46;98461.53;;;9.86;84.16
79250;BME280;68679;51.030;7.584;2023-11-19T09:33:12;98487.44;;;9.87;84.36
79250;BME280;68679;51.030;7.584;2023-11-19T09:35:37;98477.47;;;9.89;84.10
79250;BME280;68679;51.030;7.584;2023-11-19T09:38:05;98481.13;;;9.88;84.45
79250;BME280;68679;51.030;7.584;2023-11-19T09:40:30;98472.78;;;9.86;83.56
79250;BME280;68679;51.030;7.584;2023-11-19T09:42:57;98466.22;;;9.89;84.08
79250;BME280;68679;51.030;7.584;2023-11-19T09:45:25;98479.03;;;9.90;84.25
79250;BME280;68679;51.030;7.584;2023-11-19T09:47:53;98460.91;;;9.94;84.16
79250;BME280;68679;51.030;7.584;2023-11-19T09:50:19;98475.84;;;9.93;83.64
79250;BME280;68679;51.030;7.584;2023-11-19T09:52:45;98463.53;;;9.94;83.25
79250;BME280;68679;51.030;7.584;2023-11-19T09:55:11;98472.97;;;9.95;83.21
79250;BME280;68679;51.030;7.584;2023-11-19T09:57:38;98465.59;;;9.97;83.37
79250;BME280;68679;51.030;7.584;2023-11-19T10:00:05;98457.47;;;9.99;84.27
79250;BME280;68679;51.030;7.584;2023-11-19T10:02:33;98464.25;;;10.00;83.01
79250;BME280;68679;51.030;7.584;2023-11-19T10:04:59;98461.38;;;10.01;83.32
79250;BME280;68679;51.030;7.584;2023-11-19T10:07:28;98461.09;;;10.03;84.08
79250;BME280;68679;51.030;7.584;2023-11-19T10:09:53;98469.72;;;10.03;83.02
79250;BME280;68679;51.030;7.584;2023-11-19T10:12:18;98463.13;;;10.06;83.95
79250;BME280;68679;51.030;7.584;2023-11-19T10:14:45;98460.50;;;10.06;83.13
79250;BME280;68679;51.030;7.584;2023-11-19T10:17:11;98462.06;;;10.07;83.11
79250;BME280;68679;51.030;7.584;2023-11-19T10:19:36;98449.78;;;10.07;83.27
79250;BME280;68679;51.030;7.584;2023-11-19T10:22:05;98449.19;;;10.10;83.88
79250;BME280;68679;51.030;7.584;2023-11-19T10:24:34;98464.63;;;10.12;83.53
79250;BME280;68679;51.030;7.584;2023-11-19T10:27:02;98460.16;;;10.12;83.18
79250;BME280;68679;51.030;7.584;2023-11-19T10:29:29;98454.66;;;10.14;83.28
79250;BME280;68679;51.030;7.584;2023-11-19T10:31:56;98456.69;;;10.17;83.18
79250;BME280;68679;51.030;7.584;2023-11-19T10:34:26;98448.84;;;10.17;83.21
79250;BME280;68679;51.030;7.584;2023-11-19T10:36:52;98451.16;;;10.18;82.70
79250;BME280;68679;51.030;7.584;2023-11-19T10:39:18;98440.69;;;10.18;82.66
79250;BME280;68679;51.030;7.584;2023-11-19T10:41:43;98440.13;;;10.21;83.16
79250;BME280;68679;51.030;7.584;2023-11-19T10:44:08;98436.19;;;10.24;83.06
79250;BME280;68679;51.030;7.584;2023-11-19T10:46:39;98432.50;;;10.25;83.29
79250;BME280;68679;51.030;7.584;2023-11-19T10:49:05;98437.50;;;10.27;82.65
79250;BME280;68679;51.030;7.584;2023-11-19T10:51:31;98436.13;;;10.29;83.40
79250;BME280;68679;51.030;7.584;2023-11-19T10:54:03;98438.47;;;10.31;83.15
79250;BME280;68679;51.030;7.584;2023-11-19T10:56:31;98436.84;;;10.35;82.47
79250;BME280;68679;51.030;7.584;2023-11-19T10:58:59;98434.22;;;10.35;82.90
79250;BME280;68679;51.030;7.584;2023-11-19T11:01:27;98439.16;;;10.36;82.84
79250;BME280;68679;51.030;7.584;2023-11-19T11:03:59;98430.25;;;10.37;82.88
79250;BME280;68679;51.030;7.584;2023-11-19T11:06:27;98433.38;;;10.39;82.62
79250;BME280;68679;51.030;7.584;2023-11-19T11:08:53;98447.47;;;10.43;82.47
79250;BME280;68679;51.030;7.584;2023-11-19T11:11:19;98444.28;;;10.46;82.45
79250;BME280;68679;51.030;7.584;2023-11-19T11:13:47;98436.91;;;10.48;82.84
79250;BME280;68679;51.030;7.584;2023-11-19T11:16:14;98437.69;;;10.49;82.32
79250;BME280;68679;51.030;7.584;2023-11-19T11:18:40;98448.16;;;10.49;82.46
79250;BME280;68679;51.030;7.584;2023-11-19T11:21:17;98430.31;;;10.51;82.42
79250;BME280;68679;51.030;7.584;2023-11-19T11:24:14;98428.00;;;10.50;81.22
79250;BME280;68679;51.030;7.584;2023-11-19T11:37:34;98421.63;;;10.56;81.83
79250;BME280;68679;51.030;7.584;2023-11-19T11:40:02;98440.44;;;10.58;81.68
79250;BME280;68679;51.030;7.584;2023-11-19T11:42:36;98415.50;;;10.60;81.30
79250;BME280;68679;51.030;7.584;2023-11-19T11:45:09;98410.00;;;10.62;81.15
79250;BME280;68679;51.030;7.584;2023-11-19T11:50:11;98411.03;;;10.61;81.04
79250;BME280;68679;51.030;7.584;2023-11-19T11:53:13;98413.09;;;10.64;81.22
79250;BME280;68679;51.030;7.584;2023-11-19T11:55:52;98432.69;;;10.66;80.99
79250;BME280;68679;51.030;7.584;2023-11-19T11:58:21;98438.81;;;10.62;80.42
79250;BME280;68679;51.030;7.584;2023-11-19T12:00:47;98420.66;;;10.65;80.96
79250;BME280;68679;51.030;7.584;2023-11-19T12:03:13;98422.50;;;10.65;81.12
79250;BME280;68679;51.030;7.584;2023-11-19T12:05:44;98433.78;;;10.65;80.50
79250;BME280;68679;51.030;7.584;2023-11-19T12:08:10;98424.84;;;10.66;80.92
79250;BME280;68679;51.030;7.584;2023-11-19T12:10:49;98406.78;;;10.65;81.30
79250;BME280;68679;51.030;7.584;2023-11-19T12:13:16;98409.41;;;10.65;81.12
79250;BME280;68679;51.030;7.584;2023-11-19T12:18:23;98415.13;;;10.67;81.20
79250;BME280;68679;51.030;7.584;2023-11-19T12:20:50;98417.75;;;10.67;81.05
79250;BME280;68679;51.030;7.584;2023-11-19T12:23:15;98406.47;;;10.66;81.08
79250;BME280;68679;51.030;7.584;2023-11-19T12:25:41;98396.50;;;10.68;81.22
79250;BME280;68679;51.030;7.584;2023-11-19T12:28:12;98396.22;;;10.70;81.55
79250;BME280;68679;51.030;7.584;2023-11-19T12:30:38;98389.69;;;10.67;80.62
79250;BME280;68679;51.030;7.584;2023-11-19T12:33:08;98387.28;;;10.71;81.58
79250;BME280;68679;51.030;7.584;2023-11-19T12:35:42;98388.06;;;10.71;81.46
79250;BME280;68679;51.030;7.584;2023-11-19T12:38:08;98387.75;;;10.73;81.64
79250;BME280;68679;51.030;7.584;2023-11-19T12:40:33;98387.75;;;10.73;81.50
79250;BME280;68679;51.030;7.584;2023-11-19T12:42:59;98380.97;;;10.72;81.29
79250;BME280;68679;51.030;7.584;2023-11-19T12:45:37;98383.28;;;10.73;81.68
79250;BME280;68679;51.030;7.584;2023-11-19T12:48:09;98374.66;;;10.73;81.41
79250;BME280;68679;51.030;7.584;2023-11-19T12:50:58;98377.00;;;10.74;81.45
79250;BME280;68679;51.030;7.584;2023-11-19T12:53:26;98370.47;;;10.72;81.52
79250;BME280;68679;51.030;7.584;2023-11-19T12:55:52;98382.50;;;10.73;80.94
79250;BME280;68679;51.030;7.584;2023-11-19T12:58:36;98371.75;;;10.74;81.15
79250;BME280;68679;51.030;7.584;2023-11-19T13:01:03;98378.34;;;10.72;81.65
79250;BME280;68679;51.030;7.584;2023-11-19T13:03:30;98372.31;;;10.71;81.33
79250;BME280;68679;51.030;7.584;2023-11-19T13:06:07;98371.25;;;10.72;81.52
79250;BME280;68679;51.030;7.584;2023-11-19T13:08:41;98381.25;;;10.70;80.76
79250;BME280;68679;51.030;7.584;2023-11-19T13:11:07;98381.25;;;10.70;81.42
79250;BME280;68679;51.030;7.584;2023-11-19T13:13:56;98379.72;;;10.69;80.99
79250;BME280;68679;51.030;7.584;2023-11-19T13:16:23;98373.41;;;10.70;80.75
79250;BME280;68679;51.030;7.584;2023-11-19T13:18:48;98363.97;;;10.69;80.25
79250;BME280;68679;51.030;7.584;2023-11-19T13:21:13;98369.50;;;10.68;80.04